Time;durP1;ratioP1;P1;durP2;ratioP2;P2;SDS_P1;SDS_P2;PMS_P1;PMS_P2;Temp;Humidity;BMP_temperature;BMP_pressure;BME280_temperature;BME280_humidity;BME280_pressure;Samples;Min_cycle;Max_cycle;Signal;HPM_P1;HPM_P2
2023/04/28 00:01:53;;;;;;;1.90;1.13;;;12.70;99.90;;;;;;4896339;29;20279;-61
2023/04/28 00:04:20;;;;;;;2.37;2.00;;;12.80;99.90;;;;;;4894941;29;20257;-59
2023/04/28 00:06:49;;;;;;;1.47;1.37;;;12.80;99.90;;;;;;4896008;29;20210;-60
2023/04/28 00:09:15;;;;;;;2.87;1.77;;;12.80;99.90;;;;;;4899080;29;20241;-60
2023/04/28 00:11:47;;;;;;;1.47;1.37;;;12.80;99.90;;;;;;4892974;29;20217;-59
2023/04/28 00:14:14;;;;;;;2.47;1.70;;;12.80;99.90;;;;;;4894362;29;20218;-60
2023/04/28 00:16:41;;;;;;;3.10;1.37;;;12.80;99.90;;;;;;4897818;29;20207;-58
2023/04/28 00:19:08;;;;;;;1.20;1.20;;;12.70;99.90;;;;;;4895884;29;20218;-60
2023/04/28 00:21:35;;;;;;;1.77;1.67;;;12.70;99.90;;;;;;4896116;29;20701;-59
2023/04/28 00:24:04;;;;;;;1.50;1.40;;;12.60;99.90;;;;;;4891143;29;20684;-59
2023/04/28 00:26:31;;;;;;;2.73;1.60;;;12.60;99.90;;;;;;4899716;29;20210;-60
2023/04/28 00:28:58;;;;;;;2.63;2.40;;;12.60;99.90;;;;;;4900262;29;20249;-60
2023/04/28 00:31:25;;;;;;;2.63;2.13;;;12.60;99.90;;;;;;4895911;29;20263;-59
2023/04/28 00:33:52;;;;;;;2.00;1.90;;;12.70;99.90;;;;;;4895686;29;20676;-60
2023/04/28 00:36:19;;;;;;;4.43;1.63;;;12.70;99.90;;;;;;4895494;29;20211;-59
2023/04/28 00:38:47;;;;;;;2.07;1.97;;;12.70;99.90;;;;;;4895811;29;20203;-59
2023/04/28 00:41:15;;;;;;;1.87;1.77;;;12.70;99.90;;;;;;4902021;29;20245;-59
2023/04/28 00:43:46;;;;;;;1.97;1.87;;;12.70;99.90;;;;;;4900410;29;20273;-60
2023/04/28 00:46:21;;;;;;;2.60;1.97;;;12.70;99.90;;;;;;4898147;29;20305;-59
2023/04/28 00:48:49;;;;;;;2.37;1.83;;;12.60;99.90;;;;;;4898915;29;20214;-60
2023/04/28 00:51:16;;;;;;;2.83;2.60;;;12.70;99.90;;;;;;4899129;29;20315;-60
2023/04/28 00:53:44;;;;;;;2.13;2.00;;;12.70;99.90;;;;;;4897758;29;20583;-60
2023/04/28 00:56:11;;;;;;;2.00;1.77;;;12.70;99.90;;;;;;4900118;29;20206;-60
2023/04/28 00:58:40;;;;;;;1.70;1.30;;;12.80;99.90;;;;;;4895852;29;20274;-60
2023/04/28 01:01:09;;;;;;;2.00;1.40;;;12.80;99.90;;;;;;4899816;29;20231;-60
2023/04/28 01:03:38;;;;;;;1.17;1.03;;;12.80;99.90;;;;;;4898075;29;20240;-60
2023/04/28 01:06:12;;;;;;;5.53;1.47;;;12.90;99.90;;;;;;4900952;29;20756;-59
2023/04/28 01:08:39;;;;;;;1.70;1.60;;;12.90;99.90;;;;;;4896665;29;20204;-60
2023/04/28 01:11:06;;;;;;;2.33;1.67;;;12.90;99.90;;;;;;4896794;29;20230;-60
2023/04/28 01:13:34;;;;;;;2.33;1.50;;;12.90;99.90;;;;;;4882869;29;20211;-59
2023/04/28 01:16:02;;;;;;;3.47;1.73;;;12.90;99.90;;;;;;4889280;29;20217;-59
2023/04/28 01:18:31;;;;;;;1.80;1.47;;;12.90;99.90;;;;;;4890186;29;20210;-61
2023/04/28 01:20:58;;;;;;;2.23;2.00;;;12.90;99.90;;;;;;4892020;29;20234;-59
2023/04/28 01:23:25;;;;;;;1.57;1.50;;;12.90;99.90;;;;;;4883934;29;20256;-60
2023/04/28 01:25:53;;;;;;;2.37;1.67;;;12.90;99.90;;;;;;4883423;29;20204;-59
2023/04/28 01:28:21;;;;;;;2.20;2.03;;;12.90;99.90;;;;;;4894879;29;20211;-59
2023/04/28 01:30:47;;;;;;;2.93;1.90;;;13.00;99.90;;;;;;4893270;29;20223;-61
2023/04/28 01:33:14;;;;;;;2.20;2.10;;;13.00;99.90;;;;;;4893564;29;20211;-59
2023/04/28 01:35:41;;;;;;;1.80;1.70;;;13.00;99.90;;;;;;4894993;29;20288;-59
2023/04/28 01:38:08;;;;;;;3.70;1.97;;;13.00;99.90;;;;;;4895928;29;20207;-59
2023/04/28 01:40:35;;;;;;;2.07;1.80;;;13.00;99.90;;;;;;4891049;29;20261;-59
2023/04/28 01:43:04;;;;;;;3.40;1.70;;;13.00;99.90;;;;;;4890158;29;20207;-60
2023/04/28 01:45:31;;;;;;;1.70;1.60;;;12.90;99.90;;;;;;4883281;29;20204;-59
2023/04/28 01:47:57;;;;;;;1.70;1.40;;;12.90;99.90;;;;;;4897894;29;20209;-59
2023/04/28 01:50:24;;;;;;;2.70;1.50;;;12.90;99.90;;;;;;4895985;29;20606;-60
2023/04/28 01:52:51;;;;;;;2.87;2.23;;;13.00;99.90;;;;;;4897679;29;20231;-60
2023/04/28 01:55:18;;;;;;;3.23;2.33;;;12.90;99.90;;;;;;4898621;29;20214;-59
2023/04/28 01:57:45;;;;;;;2.67;2.20;;;12.90;99.90;;;;;;4892637;29;20233;-61
2023/04/28 02:00:14;;;;;;;1.97;1.87;;;12.90;99.90;;;;;;4897676;29;20252;-60
2023/04/28 02:02:41;;;;;;;1.53;1.43;;;12.80;99.90;;;;;;4897863;29;20203;-59
2023/04/28 02:05:08;;;;;;;1.23;1.13;;;12.90;99.90;;;;;;4896998;29;20203;-60
2023/04/28 02:07:35;;;;;;;1.37;1.27;;;12.90;99.90;;;;;;4893932;29;20206;-61
2023/04/28 02:10:02;;;;;;;1.57;1.47;;;12.90;99.90;;;;;;4901115;29;20717;-59
2023/04/28 02:12:29;;;;;;;5.60;1.50;;;13.00;99.90;;;;;;4904033;29;20199;-60
2023/04/28 02:14:56;;;;;;;1.70;1.60;;;13.00;99.90;;;;;;4892496;29;20207;-59
2023/04/28 02:17:28;;;;;;;1.80;1.70;;;13.00;99.90;;;;;;4896166;29;20207;-59
2023/04/28 02:19:56;;;;;;;3.90;1.40;;;13.00;99.90;;;;;;4896225;29;20728;-59
2023/04/28 02:22:26;;;;;;;1.87;1.70;;;13.00;99.90;;;;;;4895794;29;20213;-59
2023/04/28 02:24:53;;;;;;;2.10;2.00;;;12.90;99.90;;;;;;4892055;29;20252;-59
2023/04/28 02:27:24;;;;;;;2.30;2.20;;;12.90;99.90;;;;;;4891205;29;20203;-59
2023/04/28 02:29:51;;;;;;;1.43;1.33;;;12.90;99.90;;;;;;4896567;29;20294;-59
2023/04/28 02:32:18;;;;;;;4.43;1.60;;;12.90;99.90;;;;;;4894541;29;20330;-60
2023/04/28 02:34:46;;;;;;;1.53;1.40;;;12.90;99.90;;;;;;4891892;29;20274;-59
2023/04/28 02:37:13;;;;;;;1.67;1.20;;;12.90;99.90;;;;;;4891836;29;20239;-59
2023/04/28 02:39:40;;;;;;;3.43;1.30;;;12.90;99.90;;;;;;4895980;29;20705;-62
2023/04/28 02:42:07;;;;;;;1.20;1.20;;;12.90;99.90;;;;;;4887692;29;20204;-59
2023/04/28 02:44:34;;;;;;;1.47;1.37;;;13.00;99.90;;;;;;4896692;29;20762;-61
2023/04/28 02:47:01;;;;;;;4.30;2.33;;;13.00;99.90;;;;;;4894914;29;20203;-59
2023/04/28 02:49:28;;;;;;;1.23;1.23;;;13.00;99.90;;;;;;4898657;29;20655;-59
2023/04/28 02:51:56;;;;;;;3.10;1.77;;;13.00;99.90;;;;;;4889486;29;20683;-60
2023/04/28 02:54:27;;;;;;;2.53;2.00;;;12.90;99.90;;;;;;4878039;29;20212;-59
2023/04/28 02:56:54;;;;;;;1.10;1.10;;;12.90;99.90;;;;;;4894126;29;20214;-60
2023/04/28 02:59:21;;;;;;;1.37;1.20;;;12.80;99.90;;;;;;4896230;29;20721;-60
2023/04/28 03:01:48;;;;;;;2.93;1.50;;;12.90;99.90;;;;;;4897065;29;20266;-59
2023/04/28 03:04:15;;;;;;;2.73;1.30;;;12.90;99.90;;;;;;4887316;29;20705;-60
2023/04/28 03:06:43;;;;;;;1.90;1.67;;;12.80;99.90;;;;;;4888543;29;20694;-61
2023/04/28 03:09:11;;;;;;;2.77;2.57;;;12.70;99.90;;;;;;4896812;29;20270;-59
2023/04/28 03:11:38;;;;;;;1.87;1.77;;;12.60;99.90;;;;;;4888901;29;20571;-59
2023/04/28 03:14:05;;;;;;;3.60;1.70;;;12.50;99.90;;;;;;4888637;29;20240;-59
2023/04/28 03:16:32;;;;;;;4.80;2.80;;;12.50;99.90;;;;;;4891059;29;20207;-58
2023/04/28 03:18:59;;;;;;;2.90;1.73;;;12.50;99.90;;;;;;4892931;29;20555;-59
2023/04/28 03:21:26;;;;;;;3.63;1.50;;;12.40;99.90;;;;;;4897079;29;20278;-59
2023/04/28 03:23:53;;;;;;;2.13;1.63;;;12.40;99.90;;;;;;4894572;29;20255;-59
2023/04/28 03:26:22;;;;;;;1.70;1.63;;;12.40;99.90;;;;;;4891954;29;20205;-59
2023/04/28 03:28:48;;;;;;;2.07;1.87;;;12.30;99.90;;;;;;4887181;29;20259;-59
2023/04/28 03:31:15;;;;;;;1.50;1.50;;;12.30;99.90;;;;;;4886881;29;20715;-60
2023/04/28 03:33:44;;;;;;;4.50;2.40;;;12.20;99.90;;;;;;4890369;29;20207;-60
2023/04/28 03:36:11;;;;;;;1.83;1.73;;;12.00;99.90;;;;;;4888197;29;20581;-59
2023/04/28 03:38:38;;;;;;;2.33;2.20;;;11.90;99.90;;;;;;4895300;29;20206;-59
2023/04/28 03:41:05;;;;;;;2.13;1.87;;;11.90;99.90;;;;;;4893203;29;20232;-62
2023/04/28 03:43:34;;;;;;;2.53;2.30;;;11.80;99.90;;;;;;4891207;29;20327;-59
2023/04/28 03:46:01;;;;;;;1.43;1.33;;;11.80;99.90;;;;;;4896833;29;20206;-60
2023/04/28 03:48:28;;;;;;;4.77;1.90;;;11.70;99.90;;;;;;4885742;29;20202;-60
2023/04/28 03:50:55;;;;;;;2.20;1.80;;;11.70;99.90;;;;;;4891804;29;20241;-59
2023/04/28 03:53:22;;;;;;;2.87;2.43;;;11.60;99.90;;;;;;4895672;29;20293;-60
2023/04/28 03:55:49;;;;;;;2.90;1.90;;;11.60;99.90;;;;;;4897977;29;20257;-59
2023/04/28 03:58:16;;;;;;;2.37;1.87;;;11.60;99.90;;;;;;4897493;29;20225;-59
2023/04/28 04:00:45;;;;;;;2.33;2.13;;;11.60;99.90;;;;;;4899965;29;20221;-59
2023/04/28 04:03:12;;;;;;;5.93;2.40;;;11.60;99.90;;;;;;4893947;29;20202;-59
2023/04/28 04:05:40;;;;;;;2.80;2.13;;;11.50;99.90;;;;;;4888246;29;20213;-59
2023/04/28 04:08:07;;;;;;;4.73;2.27;;;11.60;99.90;;;;;;4891907;29;20206;-59
2023/04/28 04:10:34;;;;;;;4.00;2.10;;;11.60;99.90;;;;;;4894732;29;20249;-60
2023/04/28 04:13:01;;;;;;;2.23;2.13;;;11.60;99.90;;;;;;4889226;29;20688;-59
2023/04/28 04:15:28;;;;;;;3.43;2.77;;;11.60;99.90;;;;;;4901954;29;20205;-59
2023/04/28 04:17:57;;;;;;;4.63;2.83;;;11.60;99.90;;;;;;4893551;29;20210;-59
2023/04/28 04:20:24;;;;;;;3.77;3.03;;;11.60;99.90;;;;;;4897752;29;20240;-59
2023/04/28 04:22:51;;;;;;;2.37;2.27;;;11.60;99.90;;;;;;4898674;29;20208;-59
2023/04/28 04:25:18;;;;;;;4.10;2.43;;;11.50;99.90;;;;;;4898247;29;20205;-59
2023/04/28 04:27:45;;;;;;;2.40;2.30;;;11.50;99.90;;;;;;4894966;29;20259;-59
2023/04/28 04:30:12;;;;;;;2.17;2.07;;;11.50;99.90;;;;;;4895939;29;20219;-59
2023/04/28 04:32:39;;;;;;;5.27;3.97;;;11.50;99.90;;;;;;4895446;29;20206;-60
2023/04/28 04:35:08;;;;;;;4.10;3.83;;;11.50;99.90;;;;;;4891789;29;20213;-59
2023/04/28 04:37:36;;;;;;;5.93;5.33;;;11.50;99.90;;;;;;4897894;29;20688;-59
2023/04/28 04:40:03;;;;;;;6.10;5.50;;;11.50;99.90;;;;;;4894251;29;20613;-59
2023/04/28 04:42:30;;;;;;;5.40;4.90;;;11.50;99.90;;;;;;4882373;29;20688;-59
2023/04/28 04:44:57;;;;;;;7.53;5.03;;;11.50;99.90;;;;;;4888199;29;20269;-59
2023/04/28 04:47:27;;;;;;;7.50;5.17;;;11.60;99.90;;;;;;4898551;29;20209;-58
2023/04/28 04:49:54;;;;;;;5.43;3.73;;;11.50;99.90;;;;;;4896771;29;20229;-60
2023/04/28 04:52:22;;;;;;;4.60;3.23;;;11.40;99.90;;;;;;4899047;29;20211;-59
2023/04/28 04:54:49;;;;;;;4.67;3.60;;;11.30;99.90;;;;;;4898511;29;20205;-60
2023/04/28 04:57:17;;;;;;;6.50;3.57;;;11.30;99.90;;;;;;4900176;29;20207;-59
2023/04/28 04:59:44;;;;;;;5.60;4.67;;;11.20;99.90;;;;;;4891140;29;21137;-59
2023/04/28 05:02:11;;;;;;;4.37;3.80;;;11.20;99.90;;;;;;4880159;29;20224;-59
2023/04/28 05:04:38;;;;;;;4.80;4.27;;;11.20;99.90;;;;;;4887304;29;20682;-59
2023/04/28 05:07:05;;;;;;;5.20;3.83;;;11.20;99.90;;;;;;4898445;29;20201;-59
2023/04/28 05:09:34;;;;;;;6.13;4.37;;;11.20;99.90;;;;;;4898586;29;20234;-59
2023/04/28 05:12:01;;;;;;;5.10;4.33;;;11.10;99.90;;;;;;4898827;29;20233;-59
2023/04/28 05:14:28;;;;;;;5.60;5.10;;;11.10;99.90;;;;;;4891030;29;20747;-59
2023/04/28 05:16:55;;;;;;;5.13;4.53;;;11.10;99.90;;;;;;4892652;29;20207;-59
2023/04/28 05:19:23;;;;;;;5.37;4.17;;;11.10;99.90;;;;;;4922709;23;20702;-58
2023/04/28 05:21:52;;;;;;;5.07;4.17;;;11.10;99.90;;;;;;4916844;29;20247;-58
2023/04/28 05:24:22;;;;;;;4.87;4.10;;;11.10;99.90;;;;;;4915276;29;20298;-58
2023/04/28 05:26:51;;;;;;;4.87;4.47;;;11.10;99.90;;;;;;4910984;29;20259;-58
2023/04/28 05:29:18;;;;;;;5.07;4.60;;;11.20;99.90;;;;;;4915539;29;20596;-58
2023/04/28 05:31:44;;;;;;;7.43;5.03;;;11.10;99.90;;;;;;4911301;29;20266;-58
2023/04/28 05:34:11;;;;;;;5.83;5.23;;;11.10;99.90;;;;;;4913632;29;20206;-58
2023/04/28 05:36:38;;;;;;;9.37;5.60;;;11.10;99.90;;;;;;4917020;29;20204;-58
2023/04/28 05:39:05;;;;;;;6.73;4.83;;;11.00;99.90;;;;;;4916816;29;20224;-58
2023/04/28 05:41:32;;;;;;;5.90;4.57;;;10.90;99.90;;;;;;4916919;29;20228;-58
2023/04/28 05:44:01;;;;;;;8.73;4.43;;;11.00;99.90;;;;;;4916035;29;20237;-58
2023/04/28 05:46:28;;;;;;;4.97;4.57;;;11.00;99.90;;;;;;4905371;29;20789;-58
2023/04/28 05:48:54;;;;;;;4.07;3.67;;;11.00;99.90;;;;;;4903662;29;20219;-58
2023/04/28 05:51:22;;;;;;;4.70;3.50;;;11.00;99.90;;;;;;4899728;29;20261;-57
2023/04/28 05:53:49;;;;;;;5.07;3.50;;;10.90;99.90;;;;;;4907935;29;20238;-58
2023/04/28 05:56:17;;;;;;;2.93;2.50;;;10.80;99.90;;;;;;4916442;29;20209;-58
2023/04/28 05:58:44;;;;;;;5.03;2.47;;;10.90;99.90;;;;;;4901331;29;20223;-58
2023/04/28 06:01:13;;;;;;;2.90;2.70;;;10.90;99.90;;;;;;4906210;29;20284;-58
2023/04/28 06:03:40;;;;;;;2.70;2.50;;;10.90;99.90;;;;;;4913896;29;20534;-57
2023/04/28 06:06:08;;;;;;;2.70;2.50;;;10.80;99.90;;;;;;4906981;29;20209;-64
2023/04/28 06:08:35;;;;;;;3.30;2.93;;;10.80;99.90;;;;;;4905345;29;20753;-65
2023/04/28 06:11:03;;;;;;;3.50;3.30;;;10.70;99.90;;;;;;4901007;29;20208;-64
2023/04/28 06:13:30;;;;;;;5.10;3.50;;;10.70;99.90;;;;;;4898772;29;20213;-66
2023/04/28 06:15:57;;;;;;;2.43;2.33;;;10.70;99.90;;;;;;4909239;29;20681;-64
2023/04/28 06:18:25;;;;;;;2.50;2.40;;;10.70;99.90;;;;;;4900315;29;20329;-66
2023/04/28 06:20:52;;;;;;;2.70;2.50;;;10.70;99.90;;;;;;4893248;29;20321;-66
2023/04/28 06:23:20;;;;;;;2.90;2.70;;;10.80;99.90;;;;;;4897104;29;20213;-66
2023/04/28 06:25:47;;;;;;;2.13;1.73;;;10.80;99.90;;;;;;4900896;29;20212;-65
2023/04/28 06:28:14;;;;;;;2.73;2.63;;;10.70;99.90;;;;;;4897187;29;20735;-66
2023/04/28 06:30:41;;;;;;;3.23;3.00;;;10.70;99.90;;;;;;4901953;29;20221;-65
2023/04/28 06:33:09;;;;;;;2.53;2.33;;;10.70;99.90;;;;;;4898060;29;20270;-65
2023/04/28 06:35:38;;;;;;;5.07;3.07;;;10.70;99.90;;;;;;4896800;29;20209;-63
2023/04/28 06:38:06;;;;;;;3.50;2.63;;;10.70;99.90;;;;;;4896350;29;20305;-64
2023/04/28 06:40:33;;;;;;;9.07;5.77;;;10.70;99.90;;;;;;4895070;29;20212;-65
2023/04/28 06:43:00;;;;;;;8.87;5.50;;;10.60;99.90;;;;;;4894939;29;20572;-64
2023/04/28 06:45:27;;;;;;;3.67;2.90;;;10.70;99.90;;;;;;4896481;29;20675;-63
2023/04/28 06:47:55;;;;;;;2.97;2.23;;;10.70;99.90;;;;;;4895714;29;20591;-64
2023/04/28 06:50:22;;;;;;;2.07;1.90;;;10.70;99.90;;;;;;4897762;29;20688;-62
2023/04/28 06:52:51;;;;;;;2.53;1.50;;;10.70;99.90;;;;;;4896099;29;20206;-62
2023/04/28 06:55:18;;;;;;;2.23;1.50;;;10.70;99.90;;;;;;4899387;29;20267;-57
2023/04/28 06:57:45;;;;;;;2.87;1.97;;;10.70;99.90;;;;;;4897018;29;20680;-57
2023/04/28 07:00:13;;;;;;;1.97;1.30;;;10.70;99.90;;;;;;4893770;29;20668;-57
2023/04/28 07:02:40;;;;;;;2.95;2.60;;;10.70;99.90;;;;;;4897753;29;20542;-57
2023/04/28 07:05:08;;;;;;;3.60;2.33;;;10.70;99.90;;;;;;4908622;29;20236;-57
2023/04/28 07:07:37;;;;;;;3.50;1.73;;;10.70;99.90;;;;;;4912341;29;20240;-57
2023/04/28 07:10:07;;;;;;;4.73;3.00;;;10.70;99.90;;;;;;4909168;29;20303;-58
2023/04/28 07:12:34;;;;;;;2.13;2.03;;;10.70;99.90;;;;;;4901021;29;20687;-57
2023/04/28 07:15:00;;;;;;;3.53;1.77;;;10.70;99.90;;;;;;4907859;29;20263;-57
2023/04/28 07:17:27;;;;;;;1.97;1.83;;;10.70;99.90;;;;;;4904931;29;20274;-58
2023/04/28 07:19:54;;;;;;;5.00;2.03;;;10.70;99.90;;;;;;4901535;29;20663;-57
2023/04/28 07:22:21;;;;;;;2.60;1.80;;;10.70;99.90;;;;;;4908429;29;20723;-58
2023/04/28 07:24:48;;;;;;;2.20;2.00;;;10.60;99.90;;;;;;4906597;29;20241;-57
2023/04/28 07:27:17;;;;;;;2.03;1.93;;;10.60;99.90;;;;;;4908039;29;20216;-57
2023/04/28 07:29:44;;;;;;;1.70;1.60;;;10.60;99.90;;;;;;4909380;29;20228;-57
2023/04/28 07:32:11;;;;;;;1.40;1.40;;;10.60;99.90;;;;;;4909272;29;20245;-57
2023/04/28 07:34:38;;;;;;;2.50;1.90;;;10.70;99.90;;;;;;4904212;29;20204;-57
2023/04/28 07:37:06;;;;;;;1.80;1.70;;;10.60;99.90;;;;;;4910934;29;20209;-57
2023/04/28 07:39:34;;;;;;;1.70;1.60;;;10.60;99.90;;;;;;4907264;29;20229;-58
2023/04/28 07:42:02;;;;;;;1.97;1.87;;;10.70;99.90;;;;;;4906342;29;20288;-58
2023/04/28 07:44:31;;;;;;;1.70;1.57;;;10.60;99.90;;;;;;4911126;29;20304;-57
2023/04/28 07:46:59;;;;;;;2.97;1.80;;;10.60;99.90;;;;;;4914318;29;20209;-57
2023/04/28 07:49:26;;;;;;;1.20;1.20;;;10.60;99.90;;;;;;4916875;29;20235;-58
2023/04/28 07:51:54;;;;;;;1.37;1.27;;;10.70;99.90;;;;;;4911788;29;20215;-57
2023/04/28 07:54:21;;;;;;;1.47;1.37;;;10.70;99.90;;;;;;4916113;29;20203;-57
2023/04/28 07:56:48;;;;;;;2.77;2.13;;;10.60;99.90;;;;;;4917780;29;20261;-58
2023/04/28 07:59:15;;;;;;;1.73;1.27;;;10.60;99.90;;;;;;4915145;29;20233;-58
2023/04/28 08:01:43;;;;;;;2.20;1.13;;;10.60;99.90;;;;;;4915659;29;20224;-57
2023/04/28 08:04:11;;;;;;;1.70;1.60;;;10.70;99.90;;;;;;4912143;29;20206;-57
2023/04/28 08:06:39;;;;;;;2.20;1.77;;;10.60;99.90;;;;;;4915493;29;20720;-58
2023/04/28 08:09:06;;;;;;;2.87;1.97;;;10.60;99.90;;;;;;4907320;29;20228;-58
2023/04/28 08:11:33;;;;;;;1.53;1.53;;;10.60;99.90;;;;;;4918198;29;20741;-58
2023/04/28 08:14:01;;;;;;;1.83;1.73;;;10.60;99.90;;;;;;4908990;29;20244;-57
2023/04/28 08:16:29;;;;;;;2.00;1.57;;;10.70;99.90;;;;;;4916828;29;20598;-57
2023/04/28 08:18:57;;;;;;;1.73;1.63;;;10.70;99.90;;;;;;4912603;29;20651;-58
2023/04/28 08:21:24;;;;;;;3.07;1.50;;;10.70;99.90;;;;;;4917560;29;20275;-56
2023/04/28 08:23:51;;;;;;;1.60;1.50;;;10.70;99.90;;;;;;4906245;29;20212;-56
2023/04/28 08:26:18;;;;;;;2.73;1.93;;;10.70;99.90;;;;;;4917843;29;20210;-57
2023/04/28 08:28:45;;;;;;;2.40;1.43;;;10.80;99.90;;;;;;4917861;29;20655;-56
2023/04/28 08:31:12;;;;;;;5.17;2.27;;;10.80;99.90;;;;;;4917794;29;20624;-55
2023/04/28 08:33:43;;;;;;;4.13;1.87;;;10.80;99.90;;;;;;4912285;29;20198;-56
2023/04/28 08:36:13;;;;;;;1.03;1.03;;;10.80;99.90;;;;;;4913964;29;20233;-56
2023/04/28 08:38:40;;;;;;;1.13;1.13;;;10.80;99.90;;;;;;4907933;29;20235;-57
2023/04/28 08:41:07;;;;;;;1.20;1.10;;;10.80;99.90;;;;;;4911018;29;20211;-55
2023/04/28 08:43:35;;;;;;;1.20;1.20;;;10.80;99.90;;;;;;4916619;29;20224;-55
2023/04/28 08:46:06;;;;;;;3.37;1.97;;;10.80;99.90;;;;;;4912346;29;20207;-57
2023/04/28 08:48:40;;;;;;;2.80;2.60;;;10.90;99.90;;;;;;4909994;29;20232;-56
2023/04/28 08:51:08;;;;;;;2.30;1.93;;;10.90;99.90;;;;;;4909191;29;20217;-56
2023/04/28 08:53:39;;;;;;;2.67;1.63;;;10.90;99.90;;;;;;4913063;29;20698;-55
2023/04/28 08:56:07;;;;;;;1.00;0.90;;;10.90;99.90;;;;;;4910268;29;20226;-57
2023/04/28 08:58:36;;;;;;;1.80;1.20;;;11.00;99.90;;;;;;4907875;29;20229;-55
2023/04/28 09:01:03;;;;;;;1.40;1.40;;;10.90;99.90;;;;;;4910607;29;20213;-61
2023/04/28 09:03:31;;;;;;;1.47;1.23;;;11.00;99.90;;;;;;4908507;29;20234;-61
2023/04/28 09:05:58;;;;;;;4.47;2.13;;;10.90;99.90;;;;;;4910116;29;20205;-60
2023/04/28 09:08:25;;;;;;;1.50;1.40;;;10.90;99.90;;;;;;4907641;29;20984;-60
2023/04/28 09:11:08;;;;;;;1.70;1.60;;;10.90;99.90;;;;;;4905090;29;20339;-60
2023/04/28 09:13:35;;;;;;;1.57;1.47;;;10.90;99.90;;;;;;4909442;29;20277;-61
2023/04/28 09:16:04;;;;;;;1.90;1.87;;;10.90;99.90;;;;;;4912178;29;20201;-61
2023/04/28 09:18:32;;;;;;;1.00;1.00;;;10.90;99.90;;;;;;4908551;29;20304;-61
2023/04/28 09:21:10;;;;;;;2.00;1.87;;;10.90;99.90;;;;;;4912143;29;20206;-60
2023/04/28 09:23:48;;;;;;;1.00;1.00;;;11.00;99.90;;;;;;4910578;29;20776;-61
2023/04/28 09:26:16;;;;;;;1.58;1.45;;;11.10;99.90;;;;;;4907395;29;20546;-55
2023/04/28 09:28:43;;;;;;;1.50;1.40;;;11.10;99.90;;;;;;4907940;29;20268;-55
2023/04/28 09:31:24;;;;;;;1.40;1.30;;;11.10;99.90;;;;;;4912812;29;20249;-55
2023/04/28 09:33:57;;;;;;;2.23;1.20;;;11.10;99.90;;;;;;4915129;29;20223;-55
2023/04/28 09:36:28;;;;;;;2.30;1.00;;;11.10;99.90;;;;;;4911912;29;20212;-55
2023/04/28 09:38:59;;;;;;;1.30;1.20;;;11.20;99.90;;;;;;4911221;29;20256;-55
2023/04/28 09:41:38;;;;;;;1.17;1.17;;;11.20;99.90;;;;;;4915258;29;20608;-55
2023/04/28 09:44:17;;;;;;;1.27;1.27;;;11.30;99.90;;;;;;4915197;29;20199;-55
2023/04/28 09:46:45;;;;;;;2.00;1.47;;;11.40;99.90;;;;;;4911297;29;20232;-55
2023/04/28 09:49:12;;;;;;;1.60;1.50;;;11.40;99.90;;;;;;4913853;29;20229;-55
2023/04/28 09:51:39;;;;;;;1.93;1.83;;;11.50;99.90;;;;;;4914966;29;20265;-55
2023/04/28 09:54:09;;;;;;;1.97;1.20;;;11.50;99.90;;;;;;4914631;29;20233;-56
2023/04/28 09:56:37;;;;;;;1.43;1.20;;;11.60;99.90;;;;;;4914005;29;20213;-56
2023/04/28 09:59:04;;;;;;;1.03;1.03;;;11.50;99.90;;;;;;4910551;29;20226;-55
2023/04/28 10:01:36;;;;;;;1.40;1.17;;;11.70;99.90;;;;;;4914780;29;20257;-55
2023/04/28 10:04:05;;;;;;;1.63;1.53;;;11.80;99.90;;;;;;4913317;29;20644;-55
2023/04/28 10:06:35;;;;;;;0.80;0.80;;;11.80;99.90;;;;;;4912038;29;20568;-56
2023/04/28 10:09:05;;;;;;;1.17;1.10;;;11.80;99.90;;;;;;4914630;29;20239;-56
2023/04/28 10:11:33;;;;;;;0.80;0.80;;;11.80;99.90;;;;;;4910243;29;20214;-55
2023/04/28 10:14:01;;;;;;;2.47;1.13;;;11.90;99.90;;;;;;4914367;29;20558;-55
2023/04/28 10:16:31;;;;;;;1.50;1.07;;;11.80;99.90;;;;;;4910245;29;20204;-55
2023/04/28 10:18:58;;;;;;;3.03;0.63;;;11.80;99.90;;;;;;4914206;29;20536;-55
2023/04/28 10:21:27;;;;;;;1.33;0.80;;;11.70;99.90;;;;;;4913322;29;20296;-55
2023/04/28 10:24:11;;;;;;;0.70;0.70;;;11.60;99.90;;;;;;4913567;29;20315;-55
2023/04/28 10:27:03;;;;;;;1.03;1.03;;;11.50;99.90;;;;;;4912197;29;20268;-55
2023/04/28 10:29:32;;;;;;;1.57;1.13;;;11.50;99.90;;;;;;4896811;29;20266;-55
2023/04/28 10:32:19;;;;;;;1.10;1.10;;;11.50;99.90;;;;;;4900658;29;20205;-55
2023/04/28 10:34:47;;;;;;;1.00;1.00;;;11.60;99.90;;;;;;4898435;29;20217;-55
2023/04/28 10:37:15;;;;;;;1.23;1.23;;;11.70;99.90;;;;;;4910066;29;20270;-55
2023/04/28 10:40:28;;;;;;;1.90;1.00;;;11.80;99.90;;;;;;4912265;29;20753;-55
2023/04/28 10:42:56;;;;;;;1.83;1.30;;;11.80;99.90;;;;;;4913752;29;20222;-55
2023/04/28 10:46:00;;;;;;;1.20;1.10;;;11.80;99.90;;;;;;4911019;29;20209;-55
2023/04/28 10:48:57;;;;;;;1.50;1.40;;;11.90;99.90;;;;;;4914283;29;20254;-55
2023/04/28 10:51:34;;;;;;;0.90;0.90;;;11.80;99.90;;;;;;4914394;29;20199;-55
2023/04/28 10:54:18;;;;;;;3.50;1.60;;;11.80;99.90;;;;;;4910339;29;20244;-56
2023/04/28 10:57:22;;;;;;;3.37;0.90;;;11.70;99.90;;;;;;4909838;29;20206;-56
2023/04/28 10:59:50;;;;;;;1.07;1.00;;;11.80;99.90;;;;;;4912357;29;20708;-61
2023/04/28 11:02:40;;;;;;;0.90;0.90;;;11.80;99.90;;;;;;4905219;29;20678;-60
2023/04/28 11:05:21;;;;;;;1.83;1.73;;;11.80;99.90;;;;;;4902335;29;20209;-59
2023/04/28 11:08:29;;;;;;;0.87;0.87;;;11.80;99.90;;;;;;4910334;29;20220;-60
2023/04/28 11:11:23;;;;;;;1.20;1.20;;;11.70;99.90;;;;;;4905856;29;20208;-63
2023/04/28 11:13:50;;;;;;;1.77;1.67;;;11.70;99.90;;;;;;4903288;29;20209;-63
2023/04/28 11:16:23;;;;;;;0.93;0.93;;;11.70;99.90;;;;;;4906976;29;20672;-63
2023/04/28 11:19:04;;;;;;;1.20;1.20;;;11.80;99.90;;;;;;4928444;23;20296;-64
2023/04/28 11:21:33;;;;;;;1.00;1.00;;;11.80;99.90;;;;;;4914027;29;20198;-64
2023/04/28 11:24:01;;;;;;;1.60;0.80;;;11.90;99.90;;;;;;4912503;29;20228;-63
2023/04/28 11:26:29;;;;;;;1.70;1.03;;;12.00;99.90;;;;;;4913427;29;20632;-63
2023/04/28 11:28:57;;;;;;;0.83;0.83;;;12.00;99.90;;;;;;4910495;29;20239;-64
2023/04/28 11:31:25;;;;;;;1.20;1.20;;;12.00;99.90;;;;;;4912558;29;20279;-65
2023/04/28 11:33:56;;;;;;;1.90;1.50;;;12.10;99.90;;;;;;4909288;29;20264;-58
2023/04/28 11:36:25;;;;;;;1.07;0.93;;;12.20;99.90;;;;;;4913315;29;20595;-63
2023/04/28 11:38:53;;;;;;;1.40;1.40;;;12.10;99.90;;;;;;4913775;29;20218;-62
2023/04/28 11:41:21;;;;;;;1.30;1.30;;;12.00;99.90;;;;;;4913590;29;20757;-60
2023/04/28 11:43:48;;;;;;;1.13;1.13;;;11.90;99.90;;;;;;4912074;29;20280;-61
2023/04/28 11:46:19;;;;;;;1.67;1.67;;;11.90;99.90;;;;;;4910740;29;20509;-60
2023/04/28 11:48:47;;;;;;;2.13;1.90;;;11.90;99.90;;;;;;4912436;29;20230;-65
2023/04/28 11:51:37;;;;;;;2.40;2.20;;;11.90;99.90;;;;;;4913584;29;20280;-61
2023/04/28 11:54:10;;;;;;;1.70;1.70;;;12.00;99.90;;;;;;4911875;29;20225;-61
2023/04/28 11:56:38;;;;;;;2.27;2.03;;;12.00;99.90;;;;;;4913365;29;20284;-59
2023/04/28 11:59:08;;;;;;;2.27;2.10;;;12.10;99.90;;;;;;4913560;29;20218;-60
2023/04/28 12:01:44;;;;;;;2.00;1.90;;;12.20;99.90;;;;;;4914761;29;20293;-60
2023/04/28 12:04:12;;;;;;;1.77;1.67;;;12.30;99.90;;;;;;4909476;29;20232;-59
2023/04/28 12:06:41;;;;;;;2.97;1.97;;;12.20;99.90;;;;;;4913366;29;20205;-59
2023/04/28 12:09:20;;;;;;;2.10;2.00;;;12.20;99.90;;;;;;4910489;29;20228;-57
2023/04/28 12:11:55;;;;;;;1.87;1.77;;;12.20;99.90;;;;;;4912012;29;20201;-56
2023/04/28 12:14:22;;;;;;;3.23;2.47;;;12.30;99.90;;;;;;4913362;29;20205;-56
2023/04/28 12:16:50;;;;;;;2.03;1.90;;;12.40;99.90;;;;;;4913435;29;20209;-56
2023/04/28 12:19:18;;;;;;;2.10;2.00;;;12.50;99.90;;;;;;4913131;29;20245;-56
2023/04/28 12:21:59;;;;;;;1.53;1.43;;;12.70;99.90;;;;;;4912555;29;20641;-57
2023/04/28 12:24:27;;;;;;;2.93;2.00;;;12.80;99.90;;;;;;4909581;29;20226;-56
2023/04/28 12:26:54;;;;;;;2.00;1.90;;;12.80;99.90;;;;;;4913275;29;20218;-57
2023/04/28 12:29:40;;;;;;;1.57;1.57;;;12.90;99.90;;;;;;4913213;29;20270;-56
2023/04/28 12:32:08;;;;;;;2.00;1.40;;;13.10;99.90;;;;;;4912999;29;20301;-56
2023/04/28 12:34:36;;;;;;;1.47;1.37;;;13.30;99.90;;;;;;4908599;29;20696;-56
2023/04/28 12:37:04;;;;;;;3.03;1.60;;;13.30;99.90;;;;;;4915537;29;20693;-56
2023/04/28 12:39:33;;;;;;;1.93;1.83;;;13.30;99.90;;;;;;4899229;29;20317;-57
2023/04/28 12:42:01;;;;;;;1.47;1.40;;;13.30;99.90;;;;;;4900043;29;20202;-57
2023/04/28 12:44:28;;;;;;;1.53;1.43;;;13.30;99.90;;;;;;4912100;29;20276;-57
2023/04/28 12:46:55;;;;;;;2.63;2.07;;;13.50;99.90;;;;;;4913193;29;20260;-56
2023/04/28 12:49:23;;;;;;;5.60;1.57;;;13.70;99.90;;;;;;4911192;29;20322;-56
2023/04/28 12:51:50;;;;;;;1.57;1.43;;;13.80;99.90;;;;;;4910572;29;20296;-57
2023/04/28 12:54:17;;;;;;;1.70;1.23;;;13.80;99.90;;;;;;4902838;29;20221;-57
2023/04/28 12:56:45;;;;;;;1.57;1.47;;;13.70;99.90;;;;;;4911271;29;20740;-56
2023/04/28 12:59:12;;;;;;;2.10;1.43;;;13.60;99.90;;;;;;4912990;29;20225;-56